createdAt,value
2022-12-24T00:01:38.294Z,95744.41
2022-12-24T00:04:08.604Z,95741.13
2022-12-24T00:06:36.969Z,95738.09
2022-12-24T00:09:05.499Z,95736.69
2022-12-24T00:11:34.004Z,95737.34
2022-12-24T00:14:02.599Z,95736.16
2022-12-24T00:16:32.444Z,95754.13
2022-12-24T00:19:00.840Z,95752.28
2022-12-24T00:21:29.225Z,95750.66
2022-12-24T00:23:57.663Z,95748.03
2022-12-24T00:26:26.019Z,95749.81
2022-12-24T00:28:54.527Z,95756.00
2022-12-24T00:31:23.096Z,95755.81
2022-12-24T00:33:53.173Z,95764.78
2022-12-24T00:36:21.991Z,95769.06
2022-12-24T00:38:50.575Z,95785.34
2022-12-24T00:41:29.182Z,95778.38
2022-12-24T00:44:00.440Z,95770.81
2022-12-24T00:46:31.220Z,95778.72
2022-12-24T00:49:01.234Z,95775.00
2022-12-24T00:51:30.173Z,95773.31
2022-12-24T00:53:58.739Z,95781.84
2022-12-24T00:56:27.408Z,95786.34
2022-12-24T00:58:56.387Z,95805.28
2022-12-24T01:01:25.096Z,95819.38
2022-12-24T01:04:13.962Z,95832.41
2022-12-24T01:06:42.705Z,95825.94
2022-12-24T01:09:11.249Z,95833.66
2022-12-24T01:11:39.862Z,95825.94
2022-12-24T01:14:08.193Z,95833.66
2022-12-24T01:16:36.791Z,95841.63
2022-12-24T01:19:05.240Z,95848.31
2022-12-24T01:21:33.645Z,95838.56
2022-12-24T01:24:03.374Z,95854.84
2022-12-24T01:26:31.747Z,95863.78
2022-12-24T01:29:00.643Z,95869.94
2022-12-24T01:31:29.035Z,95877.31
2022-12-24T01:33:57.912Z,95874.06
2022-12-24T01:36:26.287Z,95870.06
2022-12-24T01:38:54.676Z,95872.31
2022-12-24T01:41:42.389Z,95859.31
2022-12-24T01:44:31.515Z,95862.41
2022-12-24T01:47:09.909Z,95860.94
2022-12-24T01:49:40.719Z,95880.56
2022-12-24T01:52:11.905Z,95864.72
2022-12-24T01:54:44.624Z,95873.69
2022-12-24T01:57:19.228Z,95887.53
2022-12-24T01:59:52.086Z,95892.22
2022-12-24T02:02:21.499Z,95888.09
2022-12-24T02:04:57.129Z,95898.06
2022-12-24T02:07:25.850Z,95896.81
2022-12-24T02:09:57.180Z,95901.88
2022-12-24T02:12:28.347Z,95903.25
2022-12-24T02:14:57.075Z,95904.25
2022-12-24T02:17:32.565Z,95915.06
2022-12-24T02:20:36.599Z,95909.75
2022-12-24T02:23:25.823Z,95906.28
2022-12-24T02:26:15.072Z,95908.13
2022-12-24T02:29:10.651Z,95915.44
2022-12-24T02:31:44.226Z,95927.41
2022-12-24T02:34:19.398Z,95940.44
2022-12-24T02:36:52.540Z,95938.50
2022-12-24T02:39:28.407Z,95944.34
2022-12-24T02:42:08.893Z,95951.84
2022-12-24T02:44:42.442Z,95948.75
2022-12-24T02:47:14.275Z,95944.63
2022-12-24T02:49:45.633Z,95946.28
2022-12-24T02:52:30.171Z,95948.09
2022-12-24T02:54:59.896Z,95951.78
2022-12-24T02:57:39.031Z,95953.16
2022-12-24T03:00:09.668Z,95952.50
2022-12-24T03:03:07.581Z,95958.34
2022-12-24T03:05:43.610Z,95944.47
2022-12-24T03:08:18.157Z,95953.44
2022-12-24T03:10:54.903Z,95951.59
2022-12-24T03:13:25.603Z,95961.38
2022-12-24T03:15:54.029Z,95965.88
2022-12-24T03:18:26.159Z,95965.59
2022-12-24T03:21:01.816Z,95971.06
2022-12-24T03:23:30.789Z,95965.94
2022-12-24T03:26:02.757Z,95971.63
2022-12-24T03:28:31.628Z,95971.63
2022-12-24T03:31:04.735Z,95966.34
2022-12-24T03:33:35.612Z,95975.09
2022-12-24T03:36:05.496Z,95975.91
2022-12-24T03:38:34.682Z,95975.28
2022-12-24T03:41:04.220Z,95968.34
2022-12-24T03:43:33.082Z,95973.00
2022-12-24T03:46:05.751Z,95963.56
2022-12-24T03:48:36.595Z,95971.91
2022-12-24T03:51:05.845Z,95971.06
2022-12-24T03:53:34.190Z,95974.09
2022-12-24T03:56:02.588Z,95973.44
2022-12-24T03:58:30.975Z,95984.03
2022-12-24T04:00:59.336Z,95989.69
2022-12-24T04:03:27.789Z,95988.06
2022-12-24T04:06:04.319Z,95989.22
2022-12-24T04:08:33.370Z,95985.78
2022-12-24T04:11:07.795Z,95980.81
2022-12-24T04:13:38.282Z,95983.47
2022-12-24T04:16:08.593Z,95994.06
2022-12-24T04:18:37.139Z,96009.13
2022-12-24T04:21:09.314Z,96005.84
2022-12-24T04:23:39.667Z,96022.13
2022-12-24T04:26:09.834Z,96037.53
2022-12-24T04:28:39.868Z,96028.09
2022-12-24T04:31:10.235Z,96038.69
2022-12-24T04:33:39.053Z,96041.53
2022-12-24T04:36:12.814Z,96029.28
2022-12-24T04:38:41.367Z,96042.72
2022-12-24T04:41:19.053Z,96051.75
2022-12-24T04:43:51.956Z,96039.75
2022-12-24T04:46:22.312Z,96046.72
2022-12-24T04:48:53.196Z,96048.47
2022-12-24T04:51:23.581Z,96047.50
2022-12-24T04:53:52.714Z,96049.84
2022-12-24T04:56:23.172Z,96047.75
2022-12-24T04:58:51.743Z,96042.63
2022-12-24T05:01:21.874Z,96042.97
2022-12-24T05:03:50.947Z,96054.25
2022-12-24T05:06:21.416Z,96063.06
2022-12-24T05:08:51.322Z,96067.38
2022-12-24T05:11:19.637Z,96071.22
2022-12-24T05:13:48.434Z,96072.25
2022-12-24T05:16:18.216Z,96063.19
2022-12-24T05:18:47.001Z,96062.91
2022-12-24T05:21:17.470Z,96051.84
2022-12-24T05:24:03.505Z,96057.47
2022-12-24T05:26:35.840Z,96062.91
2022-12-24T05:29:05.941Z,96059.63
2022-12-24T05:31:36.181Z,96059.81
2022-12-24T05:34:04.720Z,96063.44
2022-12-24T05:36:33.138Z,96056.50
2022-12-24T05:39:01.572Z,96067.25
2022-12-24T05:41:30.253Z,96069.06
2022-12-24T05:43:59.960Z,96060.47
2022-12-24T05:46:28.459Z,96055.69
2022-12-24T05:48:56.874Z,96075.00
2022-12-24T05:51:26.917Z,96083.59
2022-12-24T05:53:55.342Z,96094.00
2022-12-24T05:56:25.394Z,96095.66
2022-12-24T05:58:54.710Z,96106.72
2022-12-24T06:01:24.825Z,96111.00
2022-12-24T06:03:54.092Z,96128.50
2022-12-24T06:06:24.741Z,96128.84
2022-12-24T06:08:54.540Z,96128.00
2022-12-24T06:11:24.867Z,96129.50
2022-12-24T06:13:53.964Z,96131.28
2022-12-24T06:16:24.877Z,96128.28
2022-12-24T06:18:53.753Z,96136.66
2022-12-24T06:21:22.420Z,96134.81
2022-12-24T06:23:50.948Z,96135.25
2022-12-24T06:26:22.068Z,96120.16
2022-12-24T06:28:51.909Z,96123.28
2022-12-24T06:31:22.321Z,96137.16
2022-12-24T06:33:53.413Z,96145.09
2022-12-24T06:36:24.555Z,96150.69
2022-12-24T06:38:54.467Z,96157.75
2022-12-24T06:41:23.750Z,96162.03
2022-12-24T06:43:53.890Z,96161.88
2022-12-24T06:46:22.837Z,96157.88
2022-12-24T06:48:52.745Z,96165.66
2022-12-24T06:51:21.516Z,96169.09
2022-12-24T06:53:51.553Z,96163.00
2022-12-24T06:56:21.035Z,96169.47
2022-12-24T06:58:49.449Z,96181.88
2022-12-24T07:01:19.555Z,96185.03
2022-12-24T07:03:48.846Z,96195.16
2022-12-24T07:06:20.692Z,96191.38
2022-12-24T07:08:49.017Z,96211.88
2022-12-24T07:11:18.094Z,96201.47
2022-12-24T07:13:47.709Z,96211.41
2022-12-24T07:16:16.737Z,96210.75
2022-12-24T07:18:45.322Z,96206.63
2022-12-24T07:21:13.765Z,96220.88
2022-12-24T07:23:43.668Z,96201.50
2022-12-24T07:26:12.134Z,96203.34
2022-12-24T07:28:40.495Z,96197.38
2022-12-24T07:31:08.920Z,96199.38
2022-12-24T07:33:37.336Z,96201.38
2022-12-24T07:36:08.081Z,96199.56
2022-12-24T07:38:37.076Z,96209.16
2022-12-24T07:41:07.125Z,96196.25
2022-12-24T07:43:35.478Z,96212.59
2022-12-24T07:46:04.186Z,96223.69
2022-12-24T07:48:33.498Z,96216.41
2022-12-24T07:51:02.208Z,96210.28
2022-12-24T07:53:32.104Z,96209.28
2022-12-24T07:56:00.653Z,96217.84
2022-12-24T07:58:30.382Z,96213.59
2022-12-24T08:01:00.577Z,96232.38
2022-12-24T08:03:29.459Z,96245.28
2022-12-24T08:05:58.492Z,96246.59
2022-12-24T08:08:27.303Z,96251.72
2022-12-24T08:10:55.690Z,96246.44
2022-12-24T08:13:24.067Z,96253.34
2022-12-24T08:15:53.893Z,96248.72
2022-12-24T08:18:22.250Z,96267.88
2022-12-24T08:20:50.805Z,96258.97
2022-12-24T08:23:19.508Z,96266.09
2022-12-24T08:25:49.271Z,96261.78
2022-12-24T08:28:19.909Z,96264.44
2022-12-24T08:30:49.639Z,96261.63
2022-12-24T08:33:19.812Z,96277.31
2022-12-24T08:35:49.950Z,96281.28
2022-12-24T08:38:18.705Z,96280.25
2022-12-24T08:40:48.960Z,96275.97
2022-12-24T08:43:18.241Z,96286.41
2022-12-24T08:45:47.406Z,96288.19
2022-12-24T08:48:16.456Z,96285.75
2022-12-24T08:50:46.325Z,96291.88
2022-12-24T08:53:15.109Z,96290.19
2022-12-24T08:55:43.505Z,96294.50
2022-12-24T08:58:11.981Z,96295.16
2022-12-24T09:00:40.418Z,96302.09
2022-12-24T09:03:08.788Z,96306.25
2022-12-24T09:05:41.140Z,96318.13
2022-12-24T09:08:10.853Z,96318.63
2022-12-24T09:10:39.214Z,96314.13
2022-12-24T09:13:07.610Z,96325.22
2022-12-24T09:15:35.925Z,96322.41
2022-12-24T09:18:04.763Z,96330.16
2022-12-24T09:20:34.557Z,96331.00
2022-12-24T09:23:02.952Z,96343.22
2022-12-24T09:25:32.737Z,96345.53
2022-12-24T09:28:01.406Z,96336.41
2022-12-24T09:30:29.727Z,96333.78
2022-12-24T09:32:58.094Z,96351.97
2022-12-24T09:35:26.507Z,96355.28
2022-12-24T09:38:03.008Z,96356.56
2022-12-24T09:40:40.606Z,96348.47
2022-12-24T09:43:17.256Z,96352.59
2022-12-24T09:45:56.248Z,96355.06
2022-12-24T09:48:29.084Z,96358.38
2022-12-24T09:51:03.346Z,96359.84
2022-12-24T09:53:41.080Z,96357.84
2022-12-24T09:56:16.431Z,96370.75
2022-12-24T09:58:47.891Z,96365.94
2022-12-24T10:01:18.703Z,96363.09
2022-12-24T10:03:48.068Z,96359.63
2022-12-24T10:06:22.325Z,96361.94
2022-12-24T10:09:07.077Z,96366.22
2022-12-24T10:11:46.138Z,96355.47
2022-12-24T10:14:27.289Z,96356.09
2022-12-24T10:17:04.236Z,96353.78
2022-12-24T10:19:45.221Z,96345.66
2022-12-24T10:22:25.695Z,96349.94
2022-12-24T10:25:01.460Z,96357.56
2022-12-24T10:27:36.757Z,96345.13
2022-12-24T10:30:17.321Z,96353.72
2022-12-24T10:32:48.929Z,96353.56
2022-12-24T10:35:24.179Z,96350.91
2022-12-24T10:37:52.738Z,96358.69
2022-12-24T10:40:30.138Z,96352.19
2022-12-24T10:43:00.161Z,96358.16
2022-12-24T10:45:37.564Z,96357.81
2022-12-24T10:48:10.590Z,96361.28
2022-12-24T10:50:42.556Z,96371.88
2022-12-24T10:53:18.780Z,96358.63
2022-12-24T10:55:48.775Z,96365.56
2022-12-24T10:58:20.834Z,96356.78
2022-12-24T11:00:53.406Z,96350.69
2022-12-24T11:03:25.761Z,96346.34
2022-12-24T11:06:05.958Z,96344.72
2022-12-24T11:08:35.013Z,96333.47
2022-12-24T11:11:06.035Z,96345.72
2022-12-24T11:13:39.719Z,96351.19
2022-12-24T11:16:16.618Z,96351.19
2022-12-24T11:18:51.903Z,96351.38
2022-12-24T11:21:23.107Z,96353.00
2022-12-24T11:23:54.035Z,96352.03
2022-12-24T11:26:24.589Z,96362.47
2022-12-24T11:29:12.509Z,96359.44
2022-12-24T11:31:41.034Z,96357.44
2022-12-24T11:34:28.724Z,96359.09
2022-12-24T11:37:14.839Z,96371.19
2022-12-24T11:39:47.651Z,96357.09
2022-12-24T11:42:27.454Z,96345.47
2022-12-24T11:44:59.046Z,96341.03
2022-12-24T11:47:35.296Z,96325.94
2022-12-24T11:50:24.995Z,96332.06
2022-12-24T11:53:00.279Z,96336.53
2022-12-24T11:55:41.761Z,96342.66
2022-12-24T11:58:22.566Z,96347.31
2022-12-24T12:00:54.013Z,96342.19
2022-12-24T12:03:30.142Z,96340.56
2022-12-24T12:06:00.959Z,96330.78
2022-12-24T12:08:31.315Z,96339.38
2022-12-24T12:11:01.033Z,96333.06
2022-12-24T12:13:33.490Z,96339.84
2022-12-24T12:16:15.684Z,96331.53
2022-12-24T12:18:50.377Z,96331.66
2022-12-24T12:21:21.738Z,96335.28
2022-12-24T12:23:53.779Z,96334.91
2022-12-24T12:26:27.335Z,96339.50
2022-12-24T12:28:59.732Z,96337.78
2022-12-24T12:31:35.442Z,96337.06
2022-12-24T12:34:10.363Z,96342.69
2022-12-24T12:36:44.860Z,96348.47
2022-12-24T12:39:13.240Z,96344.25
2022-12-24T12:41:51.830Z,96343.47
2022-12-24T12:44:49.839Z,96332.50
2022-12-24T12:47:31.617Z,96339.69
2022-12-24T12:50:09.713Z,96342.25
2022-12-24T12:52:55.440Z,96350.25
2022-12-24T12:55:34.710Z,96352.00
2022-12-24T12:58:09.478Z,96356.03
2022-12-24T13:00:40.504Z,96366.63
2022-12-24T13:03:39.884Z,96364.16
2022-12-24T13:06:35.598Z,96365.34
2022-12-24T13:09:28.307Z,96368.97
2022-12-24T13:12:20.825Z,96371.81
2022-12-24T13:15:02.609Z,96371.16
2022-12-24T13:18:00.871Z,96384.25
2022-12-24T13:20:33.108Z,96374.94
2022-12-24T13:23:05.111Z,96375.75
2022-12-24T13:25:38.268Z,96375.56
2022-12-24T13:28:34.150Z,96378.88
2022-12-24T13:31:25.714Z,96378.22
2022-12-24T13:33:55.858Z,96379.25
2022-12-24T13:36:26.055Z,96374.09
2022-12-24T13:38:57.152Z,96376.59
2022-12-24T13:41:58.915Z,96378.06
2022-12-24T13:44:32.929Z,96386.06
2022-12-24T13:47:28.152Z,96380.75
2022-12-24T13:50:15.507Z,96395.09
2022-12-24T13:52:54.124Z,96388.03
2022-12-24T13:55:23.531Z,96391.38
2022-12-24T13:57:58.790Z,96392.75
2022-12-24T14:00:33.137Z,96399.38
2022-12-24T14:03:05.907Z,96401.75
2022-12-24T14:05:38.612Z,96394.94
2022-12-24T14:08:12.604Z,96390.66
2022-12-24T14:10:44.797Z,96398.91
2022-12-24T14:13:54.889Z,96396.63
2022-12-24T14:16:24.620Z,96395.81
2022-12-24T14:19:00.771Z,96389.66
2022-12-24T14:21:33.097Z,96385.72
2022-12-24T14:24:05.309Z,96397.50
2022-12-24T14:26:37.796Z,96397.84
2022-12-24T14:29:22.839Z,96402.66
2022-12-24T14:31:53.796Z,96402.00
2022-12-24T14:34:22.920Z,96400.38
2022-12-24T14:36:55.463Z,96404.19
2022-12-24T14:39:30.540Z,96407.69
2022-12-24T14:42:17.361Z,96401.09
2022-12-24T14:44:55.814Z,96397.09
2022-12-24T14:47:34.712Z,96404.75
2022-12-24T14:50:35.471Z,96400.81
2022-12-24T14:53:19.042Z,96401.16
2022-12-24T14:55:50.484Z,96405.78
2022-12-24T14:58:27.929Z,96422.69
2022-12-24T15:00:58.916Z,96425.69
2022-12-24T15:03:29.018Z,96433.78
2022-12-24T15:06:00.474Z,96439.44
2022-12-24T15:08:32.099Z,96433.50
2022-12-24T15:11:08.314Z,96437.66
2022-12-24T15:13:39.983Z,96438.50
2022-12-24T15:16:11.858Z,96439.00
2022-12-24T15:18:44.463Z,96437.69
2022-12-24T15:21:19.900Z,96450.44
2022-12-24T15:23:50.538Z,96459.72
2022-12-24T15:26:26.947Z,96459.22
2022-12-24T15:29:02.790Z,96446.50
2022-12-24T15:31:32.891Z,96453.13
2022-12-24T15:34:01.537Z,96442.84
2022-12-24T15:36:33.889Z,96441.38
2022-12-24T15:39:04.157Z,96435.59
2022-12-24T15:42:00.225Z,96435.91
2022-12-24T15:44:31.025Z,96434.44
2022-12-24T15:47:01.125Z,96437.59
2022-12-24T15:49:30.866Z,96431.97
2022-12-24T15:52:05.644Z,96433.97
2022-12-24T15:54:34.576Z,96429.00
2022-12-24T15:57:15.801Z,96423.53
2022-12-24T15:59:44.340Z,96430.50
2022-12-24T16:02:36.593Z,96428.19
2022-12-24T16:05:30.968Z,96427.47
2022-12-24T16:08:22.053Z,96429.81
2022-12-24T16:10:52.905Z,96428.47
2022-12-24T16:13:24.802Z,96444.66
2022-12-24T16:15:56.507Z,96436.72
2022-12-24T16:18:27.665Z,96447.16
2022-12-24T16:20:57.664Z,96449.59
2022-12-24T16:23:28.236Z,96449.44
2022-12-24T16:25:56.691Z,96458.22
2022-12-24T16:28:27.650Z,96460.19
2022-12-24T16:30:56.885Z,96458.38
2022-12-24T16:33:25.248Z,96457.53
2022-12-24T16:35:53.796Z,96460.88
2022-12-24T16:38:22.554Z,96439.03
2022-12-24T16:40:50.821Z,96442.69
2022-12-24T16:43:36.696Z,96446.16
2022-12-24T16:46:08.743Z,96443.66
2022-12-24T16:48:38.937Z,96445.31
2022-12-24T16:51:07.273Z,96453.25
2022-12-24T16:53:35.638Z,96459.38
2022-12-24T16:56:04.029Z,96466.47
2022-12-24T16:58:33.070Z,96468.47
2022-12-24T17:01:09.965Z,96468.47
2022-12-24T17:03:38.637Z,96465.00
2022-12-24T17:06:09.323Z,96460.53
2022-12-24T17:08:38.179Z,96459.72
2022-12-24T17:11:06.911Z,96467.63
2022-12-24T17:13:35.368Z,96471.91
2022-12-24T17:16:03.955Z,96476.38
2022-12-24T17:18:33.761Z,96472.06
2022-12-24T17:21:03.689Z,96471.41
2022-12-24T17:23:32.110Z,96482.16
2022-12-24T17:26:00.576Z,96494.38
2022-12-24T17:28:34.845Z,96492.72
2022-12-24T17:31:08.080Z,96496.38
2022-12-24T17:33:37.943Z,96494.53
2022-12-24T17:36:06.873Z,96495.34
2022-12-24T17:38:35.251Z,96487.44
2022-12-24T17:41:04.125Z,96499.66
2022-12-24T17:43:33.761Z,96488.94
2022-12-24T17:46:06.309Z,96483.00
2022-12-24T17:48:35.187Z,96483.97
2022-12-24T17:51:07.138Z,96474.41
2022-12-24T17:53:36.438Z,96476.38
2022-12-24T17:56:05.554Z,96476.53
2022-12-24T17:58:34.108Z,96489.91
2022-12-24T18:01:02.466Z,96482.97
2022-12-24T18:03:30.887Z,96486.44
2022-12-24T18:06:05.240Z,96501.28
2022-12-24T18:08:36.018Z,96502.16
2022-12-24T18:11:12.083Z,96495.84
2022-12-24T18:13:40.932Z,96488.94
2022-12-24T18:16:20.534Z,96480.00
2022-12-24T18:18:50.251Z,96471.41
2022-12-24T18:21:20.263Z,96474.19
2022-12-24T18:23:52.090Z,96487.56
2022-12-24T18:26:21.133Z,96495.34
2022-12-24T18:28:49.505Z,96496.00
2022-12-24T18:31:19.754Z,96498.84
2022-12-24T18:33:50.345Z,96500.97
2022-12-24T18:36:20.198Z,96499.47
2022-12-24T18:38:50.046Z,96503.41
2022-12-24T18:41:20.790Z,96500.09
2022-12-24T18:43:49.327Z,96513.47
2022-12-24T18:46:19.877Z,96497.63
2022-12-24T18:48:48.877Z,96504.88
2022-12-24T18:51:18.403Z,96502.41
2022-12-24T18:53:46.814Z,96506.19
2022-12-24T18:56:18.875Z,96505.53
2022-12-24T18:58:47.508Z,96516.25
2022-12-24T19:01:17.782Z,96520.03
2022-12-24T19:03:46.327Z,96511.16
2022-12-24T19:06:14.740Z,96511.28
2022-12-24T19:09:00.736Z,96514.91
2022-12-24T19:11:33.751Z,96511.59
2022-12-24T19:14:03.173Z,96505.66
2022-12-24T19:16:37.035Z,96512.59
2022-12-24T19:19:07.269Z,96506.47
2022-12-24T19:21:36.236Z,96504.97
2022-12-24T19:24:04.937Z,96511.28
2022-12-24T19:26:34.621Z,96518.19
2022-12-24T19:29:02.945Z,96528.09
2022-12-24T19:31:32.244Z,96526.41
2022-12-24T19:34:00.777Z,96527.56
2022-12-24T19:36:31.089Z,96534.69
2022-12-24T19:39:00.259Z,96536.66
2022-12-24T19:41:30.656Z,96532.34
2022-12-24T19:44:01.647Z,96527.91
2022-12-24T19:46:32.967Z,96526.09
2022-12-24T19:49:05.065Z,96534.97
2022-12-24T19:51:34.200Z,96534.16
2022-12-24T19:54:02.879Z,96533.50
2022-12-24T19:56:33.180Z,96534.47
2022-12-24T19:59:05.120Z,96535.47
2022-12-24T20:01:35.112Z,96526.72
2022-12-24T20:04:04.137Z,96528.50
2022-12-24T20:06:35.354Z,96540.22
2022-12-24T20:09:06.024Z,96535.94
2022-12-24T20:11:35.187Z,96545.66
2022-12-24T20:14:05.845Z,96539.56
2022-12-24T20:16:35.387Z,96534.28
2022-12-24T20:19:05.774Z,96535.44
2022-12-24T20:21:35.212Z,96541.69
2022-12-24T20:24:03.625Z,96533.91
2022-12-24T20:26:32.055Z,96532.28
2022-12-24T20:29:06.532Z,96526.31
2022-12-24T20:31:35.435Z,96526.47
2022-12-24T20:34:07.364Z,96519.50
2022-12-24T20:36:39.590Z,96517.88
2022-12-24T20:39:08.111Z,96519.50
2022-12-24T20:41:37.309Z,96513.41
2022-12-24T20:44:07.194Z,96518.56
2022-12-24T20:46:35.716Z,96512.25
2022-12-24T20:49:05.253Z,96514.75
2022-12-24T20:51:33.841Z,96515.91
2022-12-24T20:54:02.189Z,96515.09
2022-12-24T20:56:31.872Z,96515.09
2022-12-24T20:59:01.311Z,96521.34
2022-12-24T21:01:31.585Z,96516.88
2022-12-24T21:04:04.423Z,96515.25
2022-12-24T21:06:33.768Z,96522.16
2022-12-24T21:09:02.781Z,96521.34
2022-12-24T21:11:48.723Z,96523.97
2022-12-24T21:14:18.133Z,96512.59
2022-12-24T21:16:48.466Z,96518.69
2022-12-24T21:19:19.248Z,96519.50
2022-12-24T21:21:47.942Z,96524.97
2022-12-24T21:24:17.118Z,96517.22
2022-12-24T21:26:45.454Z,96519.31
2022-12-24T21:29:14.629Z,96516.69
2022-12-24T21:31:43.964Z,96515.00
2022-12-24T21:34:13.821Z,96524.09
2022-12-24T21:36:42.676Z,96511.88
2022-12-24T21:39:11.047Z,96524.25
2022-12-24T21:41:39.381Z,96514.53
2022-12-24T21:44:07.711Z,96527.41
2022-12-24T21:46:36.269Z,96532.53
2022-12-24T21:49:22.351Z,96536.84
2022-12-24T21:51:52.073Z,96529.88
2022-12-24T21:54:27.408Z,96536.00
2022-12-24T21:57:15.855Z,96534.34
2022-12-24T21:59:44.499Z,96529.06
2022-12-24T22:02:14.638Z,96536.00
2022-12-24T22:04:43.997Z,96527.09
2022-12-24T22:07:40.001Z,96535.03
2022-12-24T22:10:27.096Z,96536.84
2022-12-24T22:12:56.295Z,96528.91
2022-12-24T22:15:24.659Z,96537.00
2022-12-24T22:17:53.240Z,96533.81
2022-12-24T22:20:21.674Z,96541.59
2022-12-24T22:22:51.568Z,96532.69
2022-12-24T22:25:20.054Z,96546.56
2022-12-24T22:27:48.450Z,96544.75
2022-12-24T22:30:17.009Z,96543.75
2022-12-24T22:32:45.420Z,96539.47
2022-12-24T22:35:13.804Z,96542.94
2022-12-24T22:37:42.170Z,96550.88
2022-12-24T22:40:12.971Z,96542.41
2022-12-24T22:42:41.963Z,96543.56
2022-12-24T22:45:16.973Z,96551.50
2022-12-24T22:47:48.734Z,96555.25
2022-12-24T22:50:17.202Z,96560.69
2022-12-24T22:52:45.869Z,96566.81
2022-12-24T22:55:15.782Z,96571.22
2022-12-24T22:57:44.101Z,96572.09
2022-12-24T23:00:16.835Z,96565.13
2022-12-24T23:02:45.336Z,96574.88
2022-12-24T23:05:15.453Z,96573.88
2022-12-24T23:07:43.925Z,96576.38
2022-12-24T23:10:12.247Z,96578.72
2022-12-24T23:12:59.541Z,96579.38
2022-12-24T23:15:27.907Z,96582.53
2022-12-24T23:17:56.274Z,96584.84
2022-12-24T23:20:24.672Z,96589.03
2022-12-24T23:22:53.017Z,96585.38
2022-12-24T23:25:21.429Z,96582.75
2022-12-24T23:27:51.255Z,96592.34
2022-12-24T23:30:19.803Z,96590.66
2022-12-24T23:32:48.359Z,96589.19
2022-12-24T23:35:17.021Z,96597.91
2022-12-24T23:37:45.348Z,96588.34
2022-12-24T23:40:14.301Z,96589.47
2022-12-24T23:42:42.709Z,96596.56
2022-12-24T23:45:12.691Z,96599.22
2022-12-24T23:47:41.488Z,96602.00
2022-12-24T23:50:11.657Z,96607.44
2022-12-24T23:52:40.218Z,96608.44
2022-12-24T23:55:09.030Z,96611.06
2022-12-24T23:57:37.442Z,96606.94
